Allendale, CA

12:07 PM PST on December 20, 2014 (GMT -0800)
Browns Valley | Change Station
CLOSE
Current Station
Personal Weather Station
Location: Vacaville, CA
Elevation: 158 ft
Nearby Weather Stations

Elev 158 ft 38.39 °N, 121.97 °W | Updated 4 seconds ago

Overcast
Overcast
54.1 °F
Feels Like 54.1 °F
N
1.0
Wind Variable Wind from SSE
Gusts 3.0 mph

Today
High -- | Low -- °F
--% Chance of Precip.
Yesterday
High -- | Low -- °F
Precip. -- in
7:21 AM 4:50 PM
Waning Crescent, 2% visible
Pressure 30.23 in
Visibility 4.0 miles
Clouds Overcast 500 ft
Dew Point 54 °F
Humidity 100%
Rainfall 0.00 in
Snow Depth Not available.
UV 1 out of 12
Pollen 2.90 out of 12
Air Quality Not available.
Flu Activity Not available.
SPECI KVCB 201930Z AUTO 19004KT 4SM BR OVC005 13/11 A3023 RMK AO2 T01280111 TSNO

More Conditions Fewer Conditions

Pressure 30.23 in
Visibility 4.0 miles
Clouds Overcast 500 ft
Dew Point 54 °F
Humidity 100%
Rainfall 0.00 in
Snow Depth Not available.
UV 1 out of 12
Pollen 2.90 out of 12
Air Quality Not available.
Flu Activity Not available.
SPECI KVCB 201930Z AUTO 19004KT 4SM BR OVC005 13/11 A3023 RMK AO2 T01280111 TSNO

More Conditions Fewer Conditions

10-Day Weather Forecast

Almanac

Astronomy

Dec. 20, 2014 Rise Set
Actual Time
Civil Twilight
Nautical Twilight
Astronomical Twilight
Moon
Length of Visible Light
Length of Day
Tomorrow will be .
, % of the Moon is Illuminated

Today's Extremes

State Highs State Lows

Community

WunderPhotos

Upload Photos

1,779,267 photos uploaded!

WunderBlogs® & News

Nearby

Air Quality

  Air Quality AQ Index Pollutant
Not available.

Snow Depth

Station Depth Elevation

Earthquake Activity

City Distance Mag. Time & Date
Minimum magnitude displayed is 2.5.

Coastal Water Temperatures

Place Temperature

Nearby Weather Stations